createdAt,value
2017-12-29T00:00:38.105Z,958.69
2017-12-29T00:01:48.082Z,958.72
2017-12-29T00:02:58.058Z,958.71
2017-12-29T00:04:07.772Z,958.72
2017-12-29T00:05:17.753Z,958.68
2017-12-29T00:06:27.736Z,958.66
2017-12-29T00:07:37.452Z,958.69
2017-12-29T00:08:47.435Z,958.66
2017-12-29T00:09:57.148Z,958.68
2017-12-29T00:11:07.131Z,958.65
2017-12-29T00:12:17.146Z,958.66
2017-12-29T00:13:27.139Z,958.63
2017-12-29T00:14:36.855Z,958.7
2017-12-29T00:15:46.573Z,958.67
2017-12-29T00:16:56.287Z,958.67
2017-12-29T00:18:06.002Z,958.68
2017-12-29T00:19:15.451Z,958.68
2017-12-29T00:20:25.430Z,958.67
2017-12-29T00:21:34.943Z,958.65
2017-12-29T00:22:44.917Z,958.67
2017-12-29T00:23:54.901Z,958.68
2017-12-29T00:25:04.084Z,958.7
2017-12-29T00:26:13.795Z,958.69
2017-12-29T00:27:22.979Z,958.68
2017-12-29T00:28:32.968Z,958.67
2017-12-29T00:29:42.953Z,958.66
2017-12-29T00:30:52.666Z,958.67
2017-12-29T00:32:02.383Z,958.69
2017-12-29T00:33:12.097Z,958.63
2017-12-29T00:34:22.080Z,958.63
2017-12-29T00:35:31.795Z,958.6
2017-12-29T00:36:41.536Z,958.62
2017-12-29T00:37:51.515Z,958.6
2017-12-29T00:39:01.500Z,958.62
2017-12-29T00:40:11.481Z,958.61
2017-12-29T00:41:21.456Z,958.62
2017-12-29T00:42:31.432Z,958.6
2017-12-29T00:43:41.146Z,958.6
2017-12-29T00:44:51.126Z,958.61
2017-12-29T00:46:01.101Z,958.59
2017-12-29T00:47:11.084Z,958.63
2017-12-29T00:48:20.794Z,958.61
2017-12-29T00:49:30.506Z,958.61
2017-12-29T00:50:40.480Z,958.59
2017-12-29T00:51:50.196Z,958.58
2017-12-29T00:53:00.175Z,958.62
2017-12-29T00:54:10.157Z,958.6
2017-12-29T00:55:19.869Z,958.64
2017-12-29T00:56:29.847Z,958.62
2017-12-29T00:57:39.835Z,958.6
2017-12-29T00:58:49.816Z,958.61
2017-12-29T00:59:59.791Z,958.62
2017-12-29T01:01:09.501Z,958.61
2017-12-29T01:02:19.216Z,958.61
2017-12-29T01:03:29.199Z,958.62
2017-12-29T01:04:39.176Z,958.61
2017-12-29T01:05:48.890Z,958.58
2017-12-29T01:06:58.868Z,958.61
2017-12-29T01:08:08.850Z,958.65
2017-12-29T01:09:18.567Z,958.65
2017-12-29T01:10:28.551Z,958.64
2017-12-29T01:11:38.532Z,958.66
2017-12-29T01:12:48.247Z,958.68
2017-12-29T01:13:57.965Z,958.63
2017-12-29T01:15:07.422Z,958.65
2017-12-29T01:16:17.136Z,958.66
2017-12-29T01:17:27.110Z,958.64
2017-12-29T01:18:37.100Z,958.61
2017-12-29T01:19:47.085Z,958.59
2017-12-29T01:20:57.062Z,958.62
2017-12-29T01:22:07.043Z,958.65
2017-12-29T01:23:17.028Z,958.61
2017-12-29T01:24:27.013Z,958.68
2017-12-29T01:25:36.993Z,958.62
2017-12-29T01:26:46.449Z,958.62
2017-12-29T01:27:56.428Z,958.59
2017-12-29T01:29:06.402Z,958.59
2017-12-29T01:30:16.383Z,958.58
2017-12-29T01:31:25.834Z,958.61
2017-12-29T01:32:35.285Z,958.59
2017-12-29T01:33:44.996Z,958.6
2017-12-29T01:34:54.982Z,958.61
2017-12-29T01:36:04.967Z,958.6
2017-12-29T01:37:14.949Z,958.59
2017-12-29T01:38:24.922Z,958.59
2017-12-29T01:39:34.691Z,958.6
2017-12-29T01:40:44.405Z,958.6
2017-12-29T01:41:54.382Z,958.62
2017-12-29T01:43:04.096Z,958.56
2017-12-29T01:44:13.816Z,958.52
2017-12-29T01:45:23.531Z,958.57
2017-12-29T01:46:33.511Z,958.5
2017-12-29T01:47:42.696Z,958.52
2017-12-29T01:48:52.675Z,958.5
2017-12-29T01:50:02.387Z,958.51
2017-12-29T01:51:11.866Z,958.5
2017-12-29T01:52:21.581Z,958.52
2017-12-29T01:53:31.600Z,958.51
2017-12-29T01:54:41.579Z,958.54
2017-12-29T01:55:51.552Z,958.51
2017-12-29T01:57:01.264Z,958.53
2017-12-29T01:58:11.245Z,958.5
2017-12-29T01:59:21.225Z,958.52
2017-12-29T02:00:30.937Z,958.53
2017-12-29T02:01:40.914Z,958.53
2017-12-29T02:02:50.902Z,958.54
2017-12-29T02:04:00.876Z,958.54
2017-12-29T02:05:10.062Z,958.53
2017-12-29T02:06:20.041Z,958.56
2017-12-29T02:07:30.022Z,958.59
2017-12-29T02:08:39.471Z,958.58
2017-12-29T02:09:49.188Z,958.58
2017-12-29T02:10:59.177Z,958.56
2017-12-29T02:12:08.889Z,958.56
2017-12-29T02:13:18.608Z,958.58
2017-12-29T02:14:28.330Z,958.52
2017-12-29T02:15:37.781Z,958.52
2017-12-29T02:16:47.794Z,958.54
2017-12-29T02:17:57.778Z,958.53
2017-12-29T02:19:07.226Z,958.5
2017-12-29T02:20:17.201Z,958.48
2017-12-29T02:21:26.975Z,958.55
2017-12-29T02:22:38.687Z,958.5
2017-12-29T02:23:48.665Z,958.49
2017-12-29T02:24:58.643Z,958.5
2017-12-29T02:26:08.357Z,958.5
2017-12-29T02:27:18.335Z,958.54
2017-12-29T02:28:28.313Z,958.52
2017-12-29T02:29:38.289Z,958.56
2017-12-29T02:30:48.272Z,958.55
2017-12-29T02:31:57.986Z,958.56
2017-12-29T02:33:07.704Z,958.57
2017-12-29T02:34:17.690Z,958.56
2017-12-29T02:35:27.411Z,958.62
2017-12-29T02:36:37.134Z,958.55
2017-12-29T02:37:47.111Z,958.61
2017-12-29T02:38:57.095Z,958.6
2017-12-29T02:40:06.298Z,958.52
2017-12-29T02:41:16.284Z,958.56
2017-12-29T02:42:26.006Z,958.54
2017-12-29T02:43:35.722Z,958.51
2017-12-29T02:44:45.704Z,958.54
2017-12-29T02:45:55.416Z,958.53
2017-12-29T02:47:05.133Z,958.53
2017-12-29T02:48:14.849Z,958.57
2017-12-29T02:49:24.836Z,958.54
2017-12-29T02:50:34.811Z,958.51
2017-12-29T02:51:44.792Z,958.53
2017-12-29T02:52:54.774Z,958.52
2017-12-29T02:54:04.752Z,958.55
2017-12-29T02:55:14.203Z,958.52
2017-12-29T02:56:24.178Z,958.49
2017-12-29T02:57:34.159Z,958.57
2017-12-29T02:58:43.874Z,958.56
2017-12-29T02:59:53.883Z,958.54
2017-12-29T03:01:03.597Z,958.52
2017-12-29T03:02:13.573Z,958.51
2017-12-29T03:03:23.551Z,958.54
2017-12-29T03:04:33.269Z,958.51
2017-12-29T03:05:42.981Z,958.5
2017-12-29T03:06:52.959Z,958.54
2017-12-29T03:08:02.677Z,958.53
2017-12-29T03:09:14.392Z,958.51
2017-12-29T03:10:24.103Z,958.53
2017-12-29T03:11:34.083Z,958.56
2017-12-29T03:12:44.063Z,958.55
2017-12-29T03:13:54.037Z,958.53
2017-12-29T03:15:04.015Z,958.59
2017-12-29T03:16:13.731Z,958.58
2017-12-29T03:17:23.753Z,958.54
2017-12-29T03:18:33.731Z,958.51
2017-12-29T03:19:43.705Z,958.54
2017-12-29T03:20:53.680Z,958.54
2017-12-29T03:22:03.396Z,958.55
2017-12-29T03:23:13.379Z,958.52
2017-12-29T03:24:23.354Z,958.53
2017-12-29T03:25:33.336Z,958.55
2017-12-29T03:26:43.315Z,958.53
2017-12-29T03:27:53.027Z,958.51
2017-12-29T03:29:02.745Z,958.49
2017-12-29T03:30:12.459Z,958.51
2017-12-29T03:31:22.456Z,958.51
2017-12-29T03:32:32.178Z,958.49
2017-12-29T03:33:42.158Z,958.49
2017-12-29T03:34:52.135Z,958.47
2017-12-29T03:36:02.117Z,958.43
2017-12-29T03:37:11.564Z,958.43
2017-12-29T03:38:21.012Z,958.44
2017-12-29T03:39:30.463Z,958.42
2017-12-29T03:40:40.440Z,958.45
2017-12-29T03:41:50.413Z,958.42
2017-12-29T03:43:00.129Z,958.44
2017-12-29T03:44:09.839Z,958.41
2017-12-29T03:45:19.553Z,958.41
2017-12-29T03:46:29.531Z,958.37
2017-12-29T03:47:39.520Z,958.37
2017-12-29T03:48:49.494Z,958.41
2017-12-29T03:49:59.469Z,958.44
2017-12-29T03:51:08.917Z,958.44
2017-12-29T03:52:18.907Z,958.44
2017-12-29T03:53:28.883Z,958.45
2017-12-29T03:54:38.862Z,958.42
2017-12-29T03:55:48.583Z,958.44
2017-12-29T03:56:58.559Z,958.44
2017-12-29T03:58:08.279Z,958.44
2017-12-29T03:59:18.254Z,958.41
2017-12-29T04:04:31.031Z,958.45
2017-12-29T04:05:40.742Z,958.46
2017-12-29T04:06:50.716Z,958.47
2017-12-29T04:08:00.425Z,958.43
2017-12-29T04:09:10.406Z,958.44
2017-12-29T04:10:20.385Z,958.44
2017-12-29T04:11:30.360Z,958.44
2017-12-29T04:12:39.811Z,958.45
2017-12-29T04:13:49.787Z,958.38
2017-12-29T04:14:59.763Z,958.42
2017-12-29T04:16:09.737Z,958.38
2017-12-29T04:17:19.712Z,958.33
2017-12-29T04:18:29.694Z,958.36
2017-12-29T04:19:39.408Z,958.33
2017-12-29T04:20:49.386Z,958.35
2017-12-29T04:21:59.360Z,958.35
2017-12-29T04:23:09.075Z,958.33
2017-12-29T04:24:19.051Z,958.31
2017-12-29T04:25:29.084Z,958.32
2017-12-29T04:26:38.794Z,958.3
2017-12-29T04:27:48.512Z,958.27
2017-12-29T04:28:58.222Z,958.29
2017-12-29T04:30:07.937Z,958.32
2017-12-29T04:31:17.649Z,958.27
2017-12-29T04:32:27.623Z,958.29
2017-12-29T04:33:37.601Z,958.24
2017-12-29T04:34:47.310Z,958.26
2017-12-29T04:35:57.024Z,958.24
2017-12-29T04:37:07.001Z,958.23
2017-12-29T04:38:16.978Z,958.22
2017-12-29T04:39:26.955Z,958.25
2017-12-29T04:40:36.664Z,958.23
2017-12-29T04:41:46.637Z,958.22
2017-12-29T04:42:56.349Z,958.22
2017-12-29T04:44:06.326Z,958.21
2017-12-29T04:45:16.305Z,958.22
2017-12-29T04:46:26.290Z,958.25
2017-12-29T04:47:36.263Z,958.23
2017-12-29T04:48:46.240Z,958.22
2017-12-29T04:49:55.949Z,958.22
2017-12-29T04:51:05.930Z,958.22
2017-12-29T04:52:15.652Z,958.18
2017-12-29T04:53:25.630Z,958.2
2017-12-29T04:54:35.604Z,958.21
2017-12-29T04:55:45.581Z,958.16
2017-12-29T04:56:55.560Z,958.18
2017-12-29T04:58:05.542Z,958.22
2017-12-29T04:59:15.524Z,958.19
2017-12-29T05:00:25.501Z,958.16
2017-12-29T05:01:35.477Z,958.15
2017-12-29T05:02:45.454Z,958.18
2017-12-29T05:03:55.436Z,958.13
2017-12-29T05:05:05.411Z,958.1
2017-12-29T05:06:15.128Z,958.12
2017-12-29T05:07:25.107Z,958.12
2017-12-29T05:08:34.818Z,958.09
2017-12-29T05:09:44.536Z,958.11
2017-12-29T05:10:54.249Z,958.08
2017-12-29T05:12:03.963Z,958.11
2017-12-29T05:13:13.675Z,958.13
2017-12-29T05:14:23.390Z,958.16
2017-12-29T05:15:33.103Z,958.15
2017-12-29T05:16:43.081Z,958.12
2017-12-29T05:17:52.533Z,958.15
2017-12-29T05:19:02.506Z,958.15
2017-12-29T05:20:12.535Z,958.17
2017-12-29T05:21:22.552Z,958.17
2017-12-29T05:22:31.997Z,958.24
2017-12-29T05:23:41.708Z,958.19
2017-12-29T05:24:51.685Z,958.16
2017-12-29T05:26:01.133Z,958.15
2017-12-29T05:27:10.842Z,958.17
2017-12-29T05:28:20.818Z,958.18
2017-12-29T05:29:30.793Z,958.14
2017-12-29T05:30:40.769Z,958.13
2017-12-29T05:31:50.484Z,958.13
2017-12-29T05:33:00.202Z,958.11
2017-12-29T05:34:09.911Z,958.16
2017-12-29T05:35:19.623Z,958.16
2017-12-29T05:36:29.605Z,958.15
2017-12-29T05:37:39.326Z,958.16
2017-12-29T05:38:49.041Z,958.15
2017-12-29T05:39:59.016Z,958.15
2017-12-29T05:41:08.466Z,958.14
2017-12-29T05:42:18.180Z,958.15
2017-12-29T05:43:28.190Z,958.18
2017-12-29T05:44:37.897Z,958.17
2017-12-29T05:45:47.871Z,958.16
2017-12-29T05:46:57.849Z,958.18
2017-12-29T05:48:07.823Z,958.13
2017-12-29T05:49:17.810Z,958.14
2017-12-29T05:50:27.786Z,958.15
2017-12-29T05:51:37.779Z,958.15
2017-12-29T05:52:47.754Z,958.13
2017-12-29T05:53:57.732Z,958.11
2017-12-29T05:55:07.715Z,958.15
2017-12-29T05:56:17.694Z,958.1
2017-12-29T05:57:27.671Z,958.05
2017-12-29T05:58:37.383Z,958.02
2017-12-29T05:59:46.829Z,958.06
2017-12-29T06:00:56.800Z,958.06
2017-12-29T06:02:06.516Z,958.1
2017-12-29T06:03:16.490Z,958.13
2017-12-29T06:04:26.475Z,958.1
2017-12-29T06:05:36.451Z,958.09
2017-12-29T06:06:46.201Z,958.08
2017-12-29T06:07:56.201Z,958.09
2017-12-29T06:09:05.387Z,958.03
2017-12-29T06:10:14.577Z,958.07
2017-12-29T06:11:24.571Z,958.05
2017-12-29T06:12:34.279Z,958.08
2017-12-29T06:13:44.257Z,958.07
2017-12-29T06:14:53.974Z,958.07
2017-12-29T06:16:03.971Z,958.1
2017-12-29T06:17:13.684Z,958.05
2017-12-29T06:18:23.660Z,958.07
2017-12-29T06:19:33.637Z,958.06
2017-12-29T06:20:43.617Z,958.1
2017-12-29T06:21:53.595Z,958.1
2017-12-29T06:23:03.570Z,958.1
2017-12-29T06:24:13.551Z,958.08
2017-12-29T06:25:23.268Z,958.05
2017-12-29T06:26:33.241Z,958.06
2017-12-29T06:27:42.960Z,958.04
2017-12-29T06:28:52.417Z,958.04
2017-12-29T06:30:02.412Z,958.05
2017-12-29T06:31:11.862Z,958.03
2017-12-29T06:32:21.596Z,958.05
2017-12-29T06:33:31.334Z,958.03
2017-12-29T06:34:41.314Z,958.02
2017-12-29T06:35:51.294Z,957.98
2017-12-29T06:37:01.267Z,957.96
2017-12-29T06:38:10.982Z,957.99
2017-12-29T06:39:20.955Z,957.94
2017-12-29T06:40:30.932Z,957.98
2017-12-29T06:41:40.909Z,957.96
2017-12-29T06:42:50.890Z,957.94
2017-12-29T06:44:00.608Z,957.97
2017-12-29T06:45:10.587Z,957.98
2017-12-29T06:46:20.301Z,958
2017-12-29T06:47:30.017Z,957.91
2017-12-29T06:48:39.998Z,957.92
2017-12-29T06:49:49.714Z,957.98
2017-12-29T06:50:59.702Z,957.9
2017-12-29T06:52:09.413Z,957.92
2017-12-29T06:53:19.386Z,957.96
2017-12-29T06:54:29.372Z,957.93
2017-12-29T06:55:39.345Z,957.97
2017-12-29T06:56:49.349Z,957.94
2017-12-29T06:57:59.376Z,957.95
2017-12-29T06:59:09.087Z,957.98
2017-12-29T07:00:19.063Z,957.98
2017-12-29T07:01:29.047Z,957.98
2017-12-29T07:02:39.026Z,957.95
2017-12-29T07:03:48.837Z,958.01
2017-12-29T07:04:58.819Z,957.96
2017-12-29T07:06:08.532Z,958
2017-12-29T07:07:18.510Z,957.99
2017-12-29T07:08:28.229Z,957.99
2017-12-29T07:09:38.217Z,957.97
2017-12-29T07:10:48.224Z,958.03
2017-12-29T07:11:58.198Z,958.02
2017-12-29T07:13:08.173Z,958.01
2017-12-29T07:14:18.146Z,958.05
2017-12-29T07:15:28.126Z,958.06
2017-12-29T07:16:37.842Z,958.09
2017-12-29T07:17:47.821Z,958.11
2017-12-29T07:18:57.536Z,958.13
2017-12-29T07:20:06.990Z,958.14
2017-12-29T07:21:16.708Z,958.16
2017-12-29T07:22:26.175Z,958.15
2017-12-29T07:23:36.161Z,958.11
2017-12-29T07:24:45.884Z,958.16
2017-12-29T07:25:55.866Z,958.16
2017-12-29T07:27:05.580Z,958.15
2017-12-29T07:28:15.558Z,958.16
2017-12-29T07:29:25.533Z,958.19
2017-12-29T07:30:35.549Z,958.17
2017-12-29T07:31:45.525Z,958.2
2017-12-29T07:32:55.502Z,958.18
2017-12-29T07:34:05.482Z,958.2
2017-12-29T07:35:14.938Z,958.21
2017-12-29T07:36:24.919Z,958.18
2017-12-29T07:37:34.638Z,958.21
2017-12-29T07:38:44.612Z,958.21
2017-12-29T07:39:54.329Z,958.21
2017-12-29T07:41:04.357Z,958.19
2017-12-29T07:42:14.344Z,958.19
2017-12-29T07:43:24.328Z,958.18
2017-12-29T07:44:34.307Z,958.21
2017-12-29T07:45:44.287Z,958.15
2017-12-29T07:46:53.996Z,958.19
2017-12-29T07:48:03.715Z,958.17
2017-12-29T07:49:13.429Z,958.18
2017-12-29T07:50:23.412Z,958.15
2017-12-29T07:51:33.398Z,958.19
2017-12-29T07:52:43.111Z,958.21
2017-12-29T07:53:53.087Z,958.2
2017-12-29T07:55:02.803Z,958.22
2017-12-29T07:56:12.512Z,958.17
2017-12-29T07:57:22.226Z,958.22
2017-12-29T07:58:31.990Z,958.24
2017-12-29T07:59:41.970Z,958.26
2017-12-29T08:00:51.950Z,958.25
2017-12-29T08:02:01.938Z,958.25
2017-12-29T08:03:11.921Z,958.22
2017-12-29T08:04:21.897Z,958.27
2017-12-29T08:05:31.876Z,958.29
2017-12-29T08:06:41.854Z,958.26
2017-12-29T08:07:51.567Z,958.28
2017-12-29T08:09:01.545Z,958.27
2017-12-29T08:10:11.521Z,958.23
2017-12-29T08:11:21.234Z,958.23
2017-12-29T08:12:30.947Z,958.22
2017-12-29T08:13:40.923Z,958.21
2017-12-29T08:14:50.902Z,958.25
2017-12-29T08:16:00.883Z,958.23
2017-12-29T08:17:10.862Z,958.24
2017-12-29T08:18:20.839Z,958.25
2017-12-29T08:19:30.817Z,958.24
2017-12-29T08:20:40.840Z,958.2
2017-12-29T08:21:50.555Z,958.21
2017-12-29T08:23:00.270Z,958.21
2017-12-29T08:24:09.455Z,958.2
2017-12-29T08:25:19.172Z,958.2
2017-12-29T08:26:29.153Z,958.21
2017-12-29T08:27:39.134Z,958.21
2017-12-29T08:28:49.110Z,958.19
2017-12-29T08:29:59.091Z,958.23
2017-12-29T08:31:08.546Z,958.24
2017-12-29T08:32:18.525Z,958.24
2017-12-29T08:33:28.237Z,958.22
2017-12-29T08:34:38.250Z,958.24
2017-12-29T08:35:47.974Z,958.17
2017-12-29T08:36:57.954Z,958.19
2017-12-29T08:38:07.946Z,958.22
2017-12-29T08:39:17.943Z,958.21
2017-12-29T08:40:27.922Z,958.21
2017-12-29T08:41:37.641Z,958.25
2017-12-29T08:42:47.407Z,958.24
2017-12-29T08:43:57.123Z,958.29
2017-12-29T08:45:06.840Z,958.28
2017-12-29T08:46:16.559Z,958.26
2017-12-29T08:47:26.539Z,958.32
2017-12-29T08:48:36.523Z,958.31
2017-12-29T08:49:46.498Z,958.34
2017-12-29T08:50:56.483Z,958.32
2017-12-29T08:52:06.197Z,958.32
2017-12-29T08:53:16.183Z,958.33
2017-12-29T08:54:26.210Z,958.33
2017-12-29T08:55:36.191Z,958.32
2017-12-29T08:56:45.907Z,958.33
2017-12-29T08:57:55.632Z,958.36
2017-12-29T08:59:05.352Z,958.28
2017-12-29T09:00:15.070Z,958.29
2017-12-29T09:01:25.049Z,958.29
2017-12-29T09:02:34.779Z,958.26
2017-12-29T09:03:44.766Z,958.31
2017-12-29T09:04:54.743Z,958.28
2017-12-29T09:06:04.733Z,958.31
2017-12-29T09:07:14.444Z,958.34
2017-12-29T09:08:24.428Z,958.32
2017-12-29T09:09:34.157Z,958.32
2017-12-29T09:10:43.871Z,958.34
2017-12-29T09:11:54.040Z,958.35
2017-12-29T09:13:03.576Z,958.35
2017-12-29T09:14:13.553Z,958.35
2017-12-29T09:15:23.548Z,958.33
2017-12-29T09:16:33.262Z,958.32
2017-12-29T09:17:43.243Z,958.31
2017-12-29T09:18:53.276Z,958.36
2017-12-29T09:20:03.251Z,958.37
2017-12-29T09:21:12.174Z,958.37
2017-12-29T09:22:22.157Z,958.38
2017-12-29T09:23:34.140Z,958.37
2017-12-29T09:24:44.119Z,958.39
2017-12-29T09:25:54.099Z,958.42
2017-12-29T09:27:04.077Z,958.37
2017-12-29T09:28:14.059Z,958.38
2017-12-29T09:29:24.037Z,958.4
2017-12-29T09:30:33.750Z,958.39
2017-12-29T09:31:43.731Z,958.36
2017-12-29T09:32:53.706Z,958.35
2017-12-29T09:34:03.423Z,958.35
2017-12-29T09:35:13.172Z,958.31
2017-12-29T09:36:23.152Z,958.31
2017-12-29T09:37:32.863Z,958.34
2017-12-29T09:38:42.858Z,958.38
2017-12-29T09:39:52.836Z,958.38
2017-12-29T09:41:02.555Z,958.42
2017-12-29T09:42:12.269Z,958.41
2017-12-29T09:43:22.307Z,958.38
2017-12-29T09:44:32.019Z,958.36
2017-12-29T09:45:41.730Z,958.39
2017-12-29T09:46:51.453Z,958.39
2017-12-29T09:48:01.165Z,958.42
2017-12-29T09:49:11.149Z,958.42
2017-12-29T09:50:21.131Z,958.44
2017-12-29T09:51:31.117Z,958.48
2017-12-29T09:52:41.095Z,958.42
2017-12-29T09:53:51.075Z,958.4
2017-12-29T09:55:00.528Z,958.41
2017-12-29T09:56:10.509Z,958.37
2017-12-29T09:57:20.487Z,958.37
2017-12-29T09:58:30.198Z,958.4
2017-12-29T09:59:40.177Z,958.39
2017-12-29T10:00:50.152Z,958.41
2017-12-29T10:02:00.129Z,958.43
2017-12-29T10:03:10.109Z,958.38
2017-12-29T10:04:20.089Z,958.42
2017-12-29T10:05:30.074Z,958.41
2017-12-29T10:06:40.057Z,958.41
2017-12-29T10:07:49.772Z,958.41
2017-12-29T10:08:59.492Z,958.4
2017-12-29T10:10:09.204Z,958.39
2017-12-29T10:11:19.198Z,958.42
2017-12-29T10:12:28.649Z,958.39
2017-12-29T10:13:38.627Z,958.4
2017-12-29T10:14:48.608Z,958.41
2017-12-29T10:15:58.323Z,958.38
2017-12-29T10:17:08.345Z,958.41
2017-12-29T10:18:18.324Z,958.42
2017-12-29T10:19:27.514Z,958.46
2017-12-29T10:20:37.226Z,958.46
2017-12-29T10:21:47.212Z,958.48
2017-12-29T10:22:56.662Z,958.47
2017-12-29T10:24:06.380Z,958.46
2017-12-29T10:25:15.829Z,958.47
2017-12-29T10:26:25.015Z,958.47
2017-12-29T10:27:34.729Z,958.46
2017-12-29T10:28:44.711Z,958.47
2017-12-29T10:29:54.688Z,958.46
2017-12-29T10:31:04.679Z,958.46
2017-12-29T10:32:14.666Z,958.46
2017-12-29T10:33:24.380Z,958.42
2017-12-29T10:34:34.092Z,958.43
2017-12-29T10:35:44.070Z,958.43
2017-12-29T10:36:53.800Z,958.47
2017-12-29T10:38:03.253Z,958.45
2017-12-29T10:39:13.240Z,958.46
2017-12-29T10:40:22.698Z,958.48
2017-12-29T10:41:32.150Z,958.48
2017-12-29T10:42:42.128Z,958.5
2017-12-29T10:43:51.838Z,958.5
2017-12-29T10:45:01.554Z,958.53
2017-12-29T10:46:11.531Z,958.53
2017-12-29T10:47:21.509Z,958.5
2017-12-29T10:48:30.957Z,958.51
2017-12-29T10:49:40.720Z,958.52
2017-12-29T10:50:50.438Z,958.52
2017-12-29T10:52:00.159Z,958.52
2017-12-29T10:53:10.147Z,958.49
2017-12-29T10:54:19.867Z,958.52
2017-12-29T10:55:29.847Z,958.52
2017-12-29T10:56:39.838Z,958.54
2017-12-29T10:57:49.814Z,958.53
2017-12-29T10:58:59.793Z,958.51
2017-12-29T11:00:09.517Z,958.52
2017-12-29T11:01:19.492Z,958.53
2017-12-29T11:02:29.204Z,958.49
2017-12-29T11:03:39.192Z,958.55
2017-12-29T11:04:49.174Z,958.53
2017-12-29T11:05:59.155Z,958.54
2017-12-29T11:07:09.133Z,958.5
2017-12-29T11:08:19.118Z,958.5
2017-12-29T11:09:29.097Z,958.52
2017-12-29T11:10:38.810Z,958.5
2017-12-29T11:11:48.525Z,958.53
2017-12-29T11:12:58.506Z,958.52
2017-12-29T11:14:08.489Z,958.47
2017-12-29T11:15:18.207Z,958.54
2017-12-29T11:16:27.923Z,958.51
2017-12-29T11:17:37.947Z,958.54
2017-12-29T11:18:47.677Z,958.49
2017-12-29T11:19:57.175Z,958.49
2017-12-29T11:21:07.159Z,958.47
2017-12-29T11:22:17.139Z,958.52
2017-12-29T11:23:26.854Z,958.48
2017-12-29T11:24:36.991Z,958.48
2017-12-29T11:25:46.710Z,958.44
2017-12-29T11:26:56.422Z,958.44
2017-12-29T11:28:05.869Z,958.46
2017-12-29T11:29:15.897Z,958.52
2017-12-29T11:30:25.373Z,958.5
2017-12-29T11:31:35.153Z,958.48
2017-12-29T11:32:44.868Z,958.5
2017-12-29T11:33:54.853Z,958.52
2017-12-29T11:35:04.911Z,958.53
2017-12-29T11:36:14.624Z,958.57
2017-12-29T11:37:24.338Z,958.59
2017-12-29T11:38:34.315Z,958.57
2017-12-29T11:39:44.290Z,958.58
2017-12-29T11:40:54.354Z,958.58
2017-12-29T11:42:04.335Z,958.56
2017-12-29T11:43:14.311Z,958.56
2017-12-29T11:44:24.286Z,958.56
2017-12-29T11:45:34.007Z,958.57
2017-12-29T11:46:43.722Z,958.56
2017-12-29T11:47:53.434Z,958.59
2017-12-29T11:49:03.409Z,958.61
2017-12-29T11:50:13.398Z,958.56
2017-12-29T11:51:23.377Z,958.59
2017-12-29T11:52:33.092Z,958.57
2017-12-29T11:53:42.810Z,958.52
2017-12-29T11:54:52.803Z,958.5
2017-12-29T11:56:02.846Z,958.52
2017-12-29T11:57:12.031Z,958.65
2017-12-29T11:58:21.746Z,958.58
2017-12-29T11:59:31.720Z,958.58
2017-12-29T12:00:41.435Z,958.61
2017-12-29T12:01:51.146Z,958.61
2017-12-29T12:03:00.857Z,958.59
2017-12-29T12:04:10.310Z,958.57
2017-12-29T12:05:20.284Z,958.57
2017-12-29T12:06:30.000Z,958.57
2017-12-29T12:07:39.999Z,958.56
2017-12-29T12:08:49.454Z,958.57
2017-12-29T12:09:59.434Z,958.53
2017-12-29T12:11:09.428Z,958.5
2017-12-29T12:12:19.407Z,958.54
2017-12-29T12:13:29.393Z,958.54
2017-12-29T12:14:39.373Z,958.48
2017-12-29T12:15:49.408Z,958.53
2017-12-29T12:16:58.859Z,958.54
2017-12-29T12:18:08.839Z,958.53
2017-12-29T12:19:18.826Z,958.57
2017-12-29T12:20:28.010Z,958.59
2017-12-29T12:21:37.989Z,958.6
2017-12-29T12:22:47.970Z,958.6
2017-12-29T12:23:57.953Z,958.64
2017-12-29T12:25:07.930Z,958.6
2017-12-29T12:26:17.908Z,958.62
2017-12-29T12:27:27.627Z,958.61
2017-12-29T12:28:37.605Z,958.6
2017-12-29T12:29:47.107Z,958.62
2017-12-29T12:30:57.096Z,958.6
2017-12-29T12:32:07.126Z,958.61
2017-12-29T12:33:16.313Z,958.61
2017-12-29T12:34:26.296Z,958.67
2017-12-29T12:35:38.014Z,958.64
2017-12-29T12:36:47.730Z,958.59
2017-12-29T12:37:57.181Z,958.62
2017-12-29T12:39:07.166Z,958.63
2017-12-29T12:40:17.143Z,958.65
2017-12-29T12:41:27.126Z,958.64
2017-12-29T12:42:36.844Z,958.64
2017-12-29T12:43:46.558Z,958.67
2017-12-29T12:44:56.546Z,958.67
2017-12-29T12:46:06.523Z,958.71
2017-12-29T12:47:16.523Z,958.77
2017-12-29T12:48:26.513Z,958.76
2017-12-29T12:49:36.229Z,958.76
2017-12-29T12:50:45.946Z,958.81
2017-12-29T12:51:55.929Z,958.77
2017-12-29T12:53:07.912Z,958.83
2017-12-29T12:54:17.892Z,958.84
2017-12-29T12:55:27.876Z,958.78
2017-12-29T12:56:37.851Z,958.82
2017-12-29T12:57:47.828Z,958.81
2017-12-29T12:58:57.810Z,958.82
2017-12-29T13:00:07.796Z,958.84
2017-12-29T13:01:17.293Z,958.83
2017-12-29T13:02:26.744Z,958.89
2017-12-29T13:03:36.725Z,958.85
2017-12-29T13:04:46.750Z,958.87
2017-12-29T13:05:55.934Z,958.86
2017-12-29T13:07:05.647Z,958.84
2017-12-29T13:08:15.624Z,958.81
2017-12-29T13:09:25.335Z,958.85
2017-12-29T13:10:35.310Z,958.86
2017-12-29T13:11:45.077Z,958.9
2017-12-29T13:12:54.801Z,958.93
2017-12-29T13:14:04.515Z,958.95
2017-12-29T13:15:14.498Z,958.93
2017-12-29T13:16:23.946Z,958.98
2017-12-29T13:17:33.665Z,958.95
2017-12-29T13:18:43.641Z,958.95
2017-12-29T13:19:53.087Z,958.95
2017-12-29T13:21:02.536Z,958.94
2017-12-29T13:22:12.522Z,958.94
2017-12-29T13:23:22.522Z,958.94
2017-12-29T13:24:32.235Z,958.96
2017-12-29T13:25:41.947Z,958.95
2017-12-29T13:26:51.659Z,958.96
2017-12-29T13:28:01.371Z,958.93
2017-12-29T13:29:11.090Z,958.95
2017-12-29T13:30:20.848Z,958.94
2017-12-29T13:31:30.820Z,958.89
2017-12-29T13:32:40.797Z,958.91
2017-12-29T13:33:50.548Z,958.97
2017-12-29T13:35:00.259Z,959
2017-12-29T13:36:10.236Z,958.99
2017-12-29T13:37:20.208Z,958.98
2017-12-29T13:38:30.194Z,958.99
2017-12-29T13:39:39.905Z,959.03
2017-12-29T13:40:49.618Z,959
2017-12-29T13:41:59.595Z,959.01
2017-12-29T13:43:09.306Z,959.03
2017-12-29T13:44:19.279Z,959.03
2017-12-29T13:45:29.254Z,959.03
2017-12-29T13:46:39.229Z,959.04
2017-12-29T13:47:48.939Z,959.1
2017-12-29T13:48:58.650Z,959.08
2017-12-29T13:50:08.625Z,959.09
2017-12-29T13:51:18.334Z,959.13
2017-12-29T13:52:28.046Z,959.14
2017-12-29T13:53:37.822Z,959.11
2017-12-29T13:54:47.807Z,959.13
2017-12-29T13:55:57.783Z,959.16
2017-12-29T13:57:07.756Z,959.11
2017-12-29T13:58:17.466Z,959.13
2017-12-29T13:59:27.175Z,959.1
2017-12-29T14:00:37.155Z,959.15
2017-12-29T14:01:47.134Z,959.12
2017-12-29T14:02:56.850Z,959.14
2017-12-29T14:04:06.557Z,959.19
2017-12-29T14:05:16.052Z,959.18
2017-12-29T14:06:26.026Z,959.19
2017-12-29T14:07:36.003Z,959.19
2017-12-29T14:08:45.710Z,959.17
2017-12-29T14:09:55.682Z,959.17
2017-12-29T14:11:05.656Z,959.18
2017-12-29T14:12:15.632Z,959.19
2017-12-29T14:13:25.606Z,959.24
2017-12-29T14:14:35.576Z,959.19
2017-12-29T14:15:45.550Z,959.24
2017-12-29T14:16:55.266Z,959.24
2017-12-29T14:18:05.249Z,959.2
2017-12-29T14:19:15.228Z,959.26
2017-12-29T14:20:24.674Z,959.27
2017-12-29T14:21:34.381Z,959.3
2017-12-29T14:22:44.357Z,959.29
2017-12-29T14:23:54.067Z,959.29
2017-12-29T14:25:04.040Z,959.28
2017-12-29T14:26:14.015Z,959.25
2017-12-29T14:27:23.996Z,959.28
2017-12-29T14:28:33.969Z,959.27
2017-12-29T14:29:43.941Z,959.27
2017-12-29T14:30:53.913Z,959.3
2017-12-29T14:32:03.628Z,959.31
2017-12-29T14:33:13.614Z,959.35
2017-12-29T14:34:23.321Z,959.31
2017-12-29T14:35:33.038Z,959.36
2017-12-29T14:36:42.752Z,959.31
2017-12-29T14:37:52.726Z,959.37